createdAt,value
2018-09-25T00:00:08.375Z,82.00
2018-09-25T00:02:35.715Z,82.60
2018-09-25T00:05:03.067Z,81.80
2018-09-25T00:07:30.470Z,82.00
2018-09-25T00:09:57.782Z,82.90
2018-09-25T00:12:25.129Z,82.90
2018-09-25T00:14:52.459Z,83.10
2018-09-25T00:17:19.792Z,83.00
2018-09-25T00:19:47.095Z,82.00
2018-09-25T00:22:14.443Z,82.40
2018-09-25T00:24:41.768Z,82.60
2018-09-25T00:27:09.241Z,82.50
2018-09-25T00:29:36.575Z,83.20
2018-09-25T00:32:03.879Z,83.80
2018-09-25T00:34:31.215Z,83.00
2018-09-25T00:36:58.516Z,83.10
2018-09-25T00:39:25.850Z,83.40
2018-09-25T00:41:53.172Z,83.40
2018-09-25T00:44:20.488Z,83.40
2018-09-25T00:46:47.818Z,83.40
2018-09-25T00:49:15.136Z,83.80
2018-09-25T00:51:42.459Z,84.30
2018-09-25T00:54:09.786Z,84.40
2018-09-25T00:56:37.087Z,84.00
2018-09-25T00:59:04.416Z,84.10
2018-09-25T01:01:31.812Z,84.40
2018-09-25T01:03:59.123Z,84.20
2018-09-25T01:06:26.428Z,84.30
2018-09-25T01:08:53.747Z,84.30
2018-09-25T01:11:21.381Z,84.50
2018-09-25T01:13:48.687Z,84.20
2018-09-25T01:16:16.015Z,84.60
2018-09-25T01:18:43.388Z,84.50
2018-09-25T01:21:10.790Z,84.20
2018-09-25T01:23:38.122Z,84.20
2018-09-25T01:26:05.489Z,84.20
2018-09-25T01:28:32.919Z,84.40
2018-09-25T01:31:00.256Z,84.60
2018-09-25T01:33:27.579Z,84.70
2018-09-25T01:35:54.905Z,84.80
2018-09-25T01:38:22.213Z,85.20
2018-09-25T01:40:49.532Z,85.20
2018-09-25T01:43:16.912Z,85.40
2018-09-25T01:45:44.271Z,85.00
2018-09-25T01:48:11.603Z,85.20
2018-09-25T01:50:38.946Z,85.20
2018-09-25T01:53:06.249Z,85.00
2018-09-25T01:55:33.573Z,85.50
2018-09-25T01:58:00.908Z,85.70
2018-09-25T02:00:28.218Z,85.50
2018-09-25T02:02:55.547Z,85.00
2018-09-25T02:05:22.853Z,85.00
2018-09-25T02:07:50.192Z,84.70
2018-09-25T02:10:17.513Z,84.80
2018-09-25T02:12:44.846Z,85.10
2018-09-25T02:15:12.170Z,85.10
2018-09-25T02:17:39.505Z,85.10
2018-09-25T02:20:06.823Z,85.40
2018-09-25T02:22:34.139Z,85.20
2018-09-25T02:25:01.471Z,85.40
2018-09-25T02:27:28.792Z,85.80
2018-09-25T02:29:56.143Z,85.90
2018-09-25T02:32:23.462Z,85.80
2018-09-25T02:34:50.794Z,85.40
2018-09-25T02:37:18.123Z,85.50
2018-09-25T02:39:45.457Z,85.20
2018-09-25T02:42:12.755Z,85.10
2018-09-25T02:44:40.116Z,84.90
2018-09-25T02:47:07.392Z,84.40
2018-09-25T02:49:34.755Z,84.20
2018-09-25T02:52:02.048Z,84.60
2018-09-25T02:54:29.366Z,84.40
2018-09-25T02:56:56.716Z,84.20
2018-09-25T02:59:24.028Z,84.10
2018-09-25T03:01:51.351Z,84.30
2018-09-25T03:04:18.684Z,84.30
2018-09-25T03:06:46.023Z,84.10
2018-09-25T03:09:13.348Z,84.10
2018-09-25T03:11:40.789Z,84.40
2018-09-25T03:14:08.541Z,83.80
2018-09-25T03:16:35.875Z,83.70
2018-09-25T03:19:03.229Z,83.90
2018-09-25T03:21:30.540Z,84.40
2018-09-25T03:23:57.946Z,83.60
2018-09-25T03:26:25.243Z,83.70
2018-09-25T03:28:52.558Z,83.70
2018-09-25T03:31:19.898Z,84.40
2018-09-25T03:33:47.215Z,83.90
2018-09-25T03:36:24.771Z,84.50
2018-09-25T03:38:52.123Z,84.60
2018-09-25T03:41:19.440Z,84.90
2018-09-25T03:43:46.811Z,85.10
2018-09-25T03:46:14.116Z,85.30
2018-09-25T03:48:41.442Z,85.60
2018-09-25T03:51:08.777Z,84.50
2018-09-25T03:53:36.140Z,84.90
2018-09-25T03:56:03.457Z,85.80
2018-09-25T03:58:30.770Z,86.30
2018-09-25T04:00:58.138Z,86.20
2018-09-25T04:03:25.424Z,85.80
2018-09-25T04:05:52.811Z,85.40
2018-09-25T04:08:20.122Z,85.70
2018-09-25T04:10:47.435Z,86.30
2018-09-25T04:13:14.778Z,86.40
2018-09-25T04:15:42.125Z,86.30
2018-09-25T04:18:09.443Z,86.60
2018-09-25T04:20:36.791Z,86.60
2018-09-25T04:23:04.125Z,86.40
2018-09-25T04:25:31.441Z,86.30
2018-09-25T04:27:58.787Z,86.50
2018-09-25T04:30:26.139Z,86.00
2018-09-25T04:32:53.440Z,85.90
2018-09-25T04:35:20.762Z,85.80
2018-09-25T04:37:48.094Z,85.70
2018-09-25T04:40:15.431Z,85.60
2018-09-25T04:42:42.734Z,85.40
2018-09-25T04:45:10.089Z,85.40
2018-09-25T04:47:37.553Z,85.90
2018-09-25T04:50:05.054Z,85.80
2018-09-25T04:52:32.391Z,85.60
2018-09-25T04:54:59.706Z,85.10
2018-09-25T04:57:27.044Z,84.50
2018-09-25T04:59:54.331Z,84.00
2018-09-25T05:02:21.647Z,83.80
2018-09-25T05:04:48.957Z,85.00
2018-09-25T05:07:16.291Z,85.70
2018-09-25T05:09:43.634Z,85.90
2018-09-25T05:12:11.013Z,86.40
2018-09-25T05:14:38.307Z,86.80
2018-09-25T05:17:06.157Z,85.50
2018-09-25T05:19:33.462Z,85.60
2018-09-25T05:22:00.844Z,85.70
2018-09-25T05:24:28.183Z,84.90
2018-09-25T05:26:55.525Z,84.60
2018-09-25T05:29:22.859Z,84.70
2018-09-25T05:31:50.199Z,84.70
2018-09-25T05:34:17.526Z,84.40
2018-09-25T05:39:17.852Z,85.00
2018-09-25T05:41:45.174Z,84.80
2018-09-25T05:44:12.526Z,84.40
2018-09-25T05:46:39.851Z,83.60
2018-09-25T05:49:07.167Z,83.50
2018-09-25T05:51:34.555Z,84.40
2018-09-25T05:54:01.934Z,84.50
2018-09-25T05:56:29.238Z,84.30
2018-09-25T05:58:56.573Z,84.90
2018-09-25T06:01:23.916Z,84.50
2018-09-25T06:03:51.227Z,83.60
2018-09-25T06:06:18.527Z,84.60
2018-09-25T06:08:45.900Z,85.50
2018-09-25T06:11:13.235Z,86.00
2018-09-25T06:13:40.592Z,85.90
2018-09-25T06:16:07.929Z,86.00
2018-09-25T06:18:35.287Z,85.70
2018-09-25T06:21:02.608Z,85.90
2018-09-25T06:23:29.909Z,85.40
2018-09-25T06:25:57.267Z,85.50
2018-09-25T06:28:24.597Z,85.60
2018-09-25T06:30:51.931Z,85.60
2018-09-25T06:33:19.277Z,85.80
2018-09-25T06:35:46.610Z,85.80
2018-09-25T06:38:13.954Z,86.10
2018-09-25T06:40:41.315Z,86.00
2018-09-25T06:43:08.578Z,85.90
2018-09-25T06:45:35.913Z,85.80
2018-09-25T06:48:03.371Z,85.80
2018-09-25T06:50:30.732Z,85.70
2018-09-25T06:52:58.045Z,85.70
2018-09-25T06:55:25.351Z,85.60
2018-09-25T06:57:53.270Z,85.20
2018-09-25T07:00:20.839Z,85.10
2018-09-25T07:02:48.150Z,84.90
2018-09-25T07:05:15.469Z,84.60
2018-09-25T07:07:42.827Z,84.40
2018-09-25T07:10:10.292Z,84.10
2018-09-25T07:12:37.508Z,83.50
2018-09-25T07:15:04.839Z,83.20
2018-09-25T07:17:32.220Z,83.10
2018-09-25T07:19:59.487Z,82.90
2018-09-25T07:22:26.844Z,82.70
2018-09-25T07:24:54.229Z,82.60
2018-09-25T07:27:21.531Z,82.70
2018-09-25T07:29:48.911Z,82.60
2018-09-25T07:32:16.291Z,82.40
2018-09-25T07:34:43.632Z,81.90
2018-09-25T07:37:10.963Z,81.30
2018-09-25T07:39:38.367Z,80.90
2018-09-25T07:42:05.633Z,80.50
2018-09-25T07:44:32.969Z,80.20
2018-09-25T07:47:00.279Z,79.70
2018-09-25T07:49:27.599Z,79.50
2018-09-25T07:51:54.919Z,79.40
2018-09-25T07:54:22.248Z,79.50
2018-09-25T07:56:49.597Z,79.40
2018-09-25T07:59:16.886Z,78.60
2018-09-25T08:01:44.212Z,78.20
2018-09-25T08:04:11.520Z,78.10
2018-09-25T08:06:38.854Z,77.10
2018-09-25T08:09:07.551Z,77.30
2018-09-25T08:11:34.855Z,77.00
2018-09-25T08:14:02.199Z,77.00
2018-09-25T08:16:29.571Z,76.80
2018-09-25T08:18:56.903Z,77.20
2018-09-25T08:21:24.238Z,77.30
2018-09-25T08:23:51.548Z,77.10
2018-09-25T08:26:18.884Z,77.00
2018-09-25T08:28:46.268Z,77.00
2018-09-25T08:31:14.223Z,77.00
2018-09-25T08:33:41.560Z,76.40
2018-09-25T08:36:08.938Z,76.40
2018-09-25T08:38:36.428Z,76.50
2018-09-25T08:41:03.723Z,76.00
2018-09-25T08:43:31.051Z,75.90
2018-09-25T08:45:58.419Z,75.90
2018-09-25T08:48:25.691Z,75.00
2018-09-25T08:50:52.997Z,75.10
2018-09-25T08:53:20.331Z,74.20
2018-09-25T08:55:47.639Z,75.00
2018-09-25T08:58:14.988Z,74.50
2018-09-25T09:00:42.282Z,73.90
2018-09-25T09:03:09.616Z,74.00
2018-09-25T09:05:36.948Z,74.10
2018-09-25T09:08:04.270Z,74.50
2018-09-25T09:10:31.595Z,74.80
2018-09-25T09:12:58.931Z,74.30
2018-09-25T09:15:26.268Z,74.80
2018-09-25T09:17:53.682Z,74.60
2018-09-25T09:20:21.015Z,74.40
2018-09-25T09:22:48.347Z,74.40
2018-09-25T09:25:15.738Z,74.60
2018-09-25T09:27:42.999Z,73.50
2018-09-25T09:30:10.307Z,73.10
2018-09-25T09:32:37.706Z,72.60
2018-09-25T09:35:04.958Z,72.00
2018-09-25T09:37:32.303Z,71.70
2018-09-25T09:39:59.639Z,71.50
2018-09-25T09:42:26.971Z,70.30
2018-09-25T09:44:54.291Z,69.30
2018-09-25T09:47:21.627Z,69.00
2018-09-25T09:49:48.986Z,69.30
2018-09-25T09:52:16.302Z,69.00
2018-09-25T09:54:43.742Z,69.10
2018-09-25T09:57:11.057Z,69.20
2018-09-25T09:59:38.399Z,66.80
2018-09-25T10:02:05.726Z,67.10
2018-09-25T10:04:33.186Z,66.10
2018-09-25T10:07:00.527Z,67.50
2018-09-25T10:09:27.859Z,66.10
2018-09-25T10:11:55.224Z,66.40
2018-09-25T10:14:22.575Z,66.60
2018-09-25T10:16:49.888Z,66.30
2018-09-25T10:19:17.237Z,63.60
2018-09-25T10:21:44.573Z,63.30
2018-09-25T10:24:11.897Z,63.70
2018-09-25T10:26:39.242Z,61.90
2018-09-25T10:29:06.546Z,62.60
2018-09-25T10:31:33.910Z,62.70
2018-09-25T10:34:01.239Z,62.60
2018-09-25T10:36:28.568Z,63.10
2018-09-25T10:38:55.906Z,62.90
2018-09-25T10:41:23.214Z,61.20
2018-09-25T10:43:50.638Z,61.50
2018-09-25T10:46:17.979Z,61.70
2018-09-25T10:48:45.324Z,61.60
2018-09-25T10:51:12.682Z,62.00
2018-09-25T10:53:40.003Z,60.40
2018-09-25T10:56:07.488Z,60.30
2018-09-25T10:58:34.700Z,58.90
2018-09-25T11:01:02.116Z,60.10
2018-09-25T11:03:29.439Z,60.90
2018-09-25T11:05:56.780Z,60.80
2018-09-25T11:08:24.110Z,61.50
2018-09-25T11:10:51.455Z,61.60
2018-09-25T11:13:18.780Z,60.60
2018-09-25T11:15:46.116Z,60.70
2018-09-25T11:18:13.447Z,59.70
2018-09-25T11:20:40.814Z,59.70
2018-09-25T11:23:08.169Z,59.90
2018-09-25T11:25:35.547Z,59.80
2018-09-25T11:28:02.946Z,60.20
2018-09-25T11:30:30.284Z,60.50
2018-09-25T11:32:57.628Z,61.00
2018-09-25T11:35:24.992Z,59.30
2018-09-25T11:37:52.258Z,60.60
2018-09-25T11:40:19.592Z,59.60
2018-09-25T11:42:46.922Z,59.40
2018-09-25T11:45:14.255Z,60.20
2018-09-25T11:47:41.559Z,59.90
2018-09-25T11:50:08.914Z,60.30
2018-09-25T11:52:36.237Z,60.50
2018-09-25T11:55:03.583Z,59.60
2018-09-25T11:57:30.936Z,59.50
2018-09-25T11:59:58.263Z,58.80
2018-09-25T12:02:25.596Z,58.30
2018-09-25T12:04:52.926Z,58.60
2018-09-25T12:07:20.277Z,59.00
2018-09-25T12:09:47.783Z,58.60
2018-09-25T12:12:15.099Z,58.60
2018-09-25T12:14:42.399Z,58.70
2018-09-25T12:17:09.719Z,58.90
2018-09-25T12:19:37.128Z,58.50
2018-09-25T12:22:04.508Z,58.60
2018-09-25T12:24:31.823Z,58.50
2018-09-25T12:26:59.274Z,58.20
2018-09-25T12:29:26.746Z,58.20
2018-09-25T12:31:55.095Z,57.70
2018-09-25T12:34:22.442Z,57.60
2018-09-25T12:36:49.889Z,57.50
2018-09-25T12:39:17.246Z,57.80
2018-09-25T12:41:44.730Z,57.30
2018-09-25T12:44:12.062Z,57.60
2018-09-25T12:46:39.399Z,57.10
2018-09-25T12:49:06.778Z,56.80
2018-09-25T12:51:34.099Z,56.60
2018-09-25T12:54:01.478Z,57.10
2018-09-25T12:56:28.839Z,56.50
2018-09-25T12:58:56.186Z,55.70
2018-09-25T13:01:23.624Z,55.60
2018-09-25T13:03:51.040Z,56.10
2018-09-25T13:06:18.335Z,55.10
2018-09-25T13:08:45.653Z,55.60
2018-09-25T13:11:12.978Z,54.10
2018-09-25T13:13:40.460Z,53.50
2018-09-25T13:16:07.958Z,53.90
2018-09-25T13:18:35.263Z,54.80
2018-09-25T13:21:02.609Z,53.80
2018-09-25T13:23:30.035Z,53.30
2018-09-25T13:25:57.370Z,52.40
2018-09-25T13:28:24.750Z,53.80
2018-09-25T13:30:52.120Z,53.10
2018-09-25T13:33:19.455Z,53.90
2018-09-25T13:35:46.767Z,53.30
2018-09-25T13:38:14.194Z,54.10
2018-09-25T13:40:41.531Z,54.10
2018-09-25T13:43:08.873Z,53.70
2018-09-25T13:45:36.223Z,54.10
2018-09-25T13:48:03.552Z,54.20
2018-09-25T13:50:30.860Z,54.50
2018-09-25T13:52:58.200Z,54.70
2018-09-25T13:55:25.616Z,53.90
2018-09-25T13:57:52.951Z,54.20
2018-09-25T14:00:20.278Z,54.00
2018-09-25T14:02:48.459Z,53.80
2018-09-25T14:05:15.815Z,54.30
2018-09-25T14:07:43.192Z,54.40
2018-09-25T14:10:10.542Z,54.00
2018-09-25T14:12:37.879Z,54.10
2018-09-25T14:15:05.235Z,54.10
2018-09-25T14:17:32.559Z,55.20
2018-09-25T14:19:59.891Z,55.00
2018-09-25T14:22:27.221Z,56.00
2018-09-25T14:24:54.600Z,55.20
2018-09-25T14:27:21.914Z,55.30
2018-09-25T14:29:49.290Z,55.70
2018-09-25T14:32:16.619Z,56.00
2018-09-25T14:34:44.003Z,55.50
2018-09-25T14:37:11.329Z,56.00
2018-09-25T14:39:38.783Z,56.00
2018-09-25T14:42:06.149Z,56.40
2018-09-25T14:44:33.453Z,56.60
2018-09-25T14:47:00.870Z,56.50
2018-09-25T14:49:28.207Z,56.80
2018-09-25T14:51:55.509Z,56.40
2018-09-25T14:54:22.916Z,56.50
2018-09-25T14:56:50.227Z,56.00
2018-09-25T14:59:17.622Z,57.10
2018-09-25T15:01:44.991Z,57.00
2018-09-25T15:04:12.314Z,57.20
2018-09-25T15:06:39.750Z,57.60
2018-09-25T15:09:07.840Z,58.00
2018-09-25T15:11:35.151Z,57.50
2018-09-25T15:14:02.491Z,57.00
2018-09-25T15:16:29.786Z,56.00
2018-09-25T15:18:57.138Z,56.00
2018-09-25T15:21:24.519Z,56.60
2018-09-25T15:23:51.797Z,56.60
2018-09-25T15:26:19.150Z,56.70
2018-09-25T15:28:46.486Z,55.30
2018-09-25T15:31:13.824Z,55.80
2018-09-25T15:33:41.148Z,56.20
2018-09-25T15:36:08.482Z,56.10
2018-09-25T15:38:36.669Z,55.70
2018-09-25T15:41:04.150Z,56.60
2018-09-25T15:43:31.398Z,56.60
2018-09-25T15:45:58.919Z,56.80
2018-09-25T15:48:26.260Z,56.60
2018-09-25T15:50:53.576Z,57.20
2018-09-25T15:53:21.013Z,56.60
2018-09-25T15:55:48.418Z,56.50
2018-09-25T15:58:15.751Z,56.90
2018-09-25T16:00:43.258Z,56.90
2018-09-25T16:03:10.594Z,57.30
2018-09-25T16:05:37.943Z,57.00
2018-09-25T16:08:05.488Z,57.00
2018-09-25T16:10:32.827Z,56.80
2018-09-25T16:13:00.165Z,57.20
2018-09-25T16:15:27.787Z,55.70
2018-09-25T16:17:56.427Z,53.60
2018-09-25T16:20:23.781Z,53.30
2018-09-25T16:22:51.128Z,52.90
2018-09-25T16:25:18.475Z,52.40
2018-09-25T16:27:45.808Z,52.20
2018-09-25T16:30:13.115Z,52.30
2018-09-25T16:32:40.436Z,53.10
2018-09-25T16:35:07.759Z,54.20
2018-09-25T16:37:35.082Z,55.00
2018-09-25T16:40:02.417Z,56.20
2018-09-25T16:42:29.748Z,56.20
2018-09-25T16:44:57.063Z,56.50
2018-09-25T16:47:24.451Z,58.10
2018-09-25T16:49:51.722Z,58.60
2018-09-25T16:52:19.033Z,58.80
2018-09-25T16:54:46.338Z,58.50
2018-09-25T16:57:13.683Z,58.80
2018-09-25T16:59:41.031Z,59.70
2018-09-25T17:02:08.366Z,59.80
2018-09-25T17:04:35.708Z,59.90
2018-09-25T17:07:03.033Z,60.80
2018-09-25T17:09:30.399Z,60.50
2018-09-25T17:11:57.740Z,61.10
2018-09-25T17:14:25.063Z,61.30
2018-09-25T17:16:52.545Z,61.70
2018-09-25T17:19:19.938Z,61.80
2018-09-25T17:21:47.287Z,62.40
2018-09-25T17:24:14.597Z,63.00
2018-09-25T17:26:42.027Z,62.90
2018-09-25T17:29:09.409Z,63.10
2018-09-25T17:31:36.684Z,62.90
2018-09-25T17:34:04.027Z,63.40
2018-09-25T17:36:31.420Z,63.30
2018-09-25T17:38:58.865Z,62.90
2018-09-25T17:41:26.269Z,63.30
2018-09-25T17:43:53.624Z,63.20
2018-09-25T17:46:20.981Z,63.30
2018-09-25T17:48:48.288Z,63.70
2018-09-25T17:51:15.640Z,64.10
2018-09-25T17:53:42.987Z,64.70
2018-09-25T17:56:10.311Z,64.90
2018-09-25T17:58:37.823Z,64.60
2018-09-25T18:01:05.179Z,64.50
2018-09-25T18:03:32.503Z,64.60
2018-09-25T18:05:59.850Z,65.20
2018-09-25T18:08:27.197Z,65.20
2018-09-25T18:10:54.523Z,65.50
2018-09-25T18:13:21.838Z,65.90
2018-09-25T18:15:49.219Z,66.50
2018-09-25T18:18:16.616Z,66.00
2018-09-25T18:20:45.102Z,66.60
2018-09-25T18:23:12.411Z,66.60
2018-09-25T18:25:39.772Z,66.40
2018-09-25T18:28:07.238Z,66.70
2018-09-25T18:30:34.437Z,67.10
2018-09-25T18:33:01.779Z,67.00
2018-09-25T18:35:29.097Z,67.60
2018-09-25T18:37:56.665Z,67.10
2018-09-25T18:40:23.972Z,67.90
2018-09-25T18:42:51.489Z,67.70
2018-09-25T18:45:18.791Z,67.60
2018-09-25T18:47:46.122Z,67.50
2018-09-25T18:50:13.463Z,67.80
2018-09-25T18:52:40.856Z,68.00
2018-09-25T18:55:08.183Z,67.90
2018-09-25T18:57:35.552Z,68.30
2018-09-25T19:00:03.068Z,68.50
2018-09-25T19:02:30.419Z,67.90
2018-09-25T19:04:57.785Z,68.30
2018-09-25T19:07:25.072Z,68.50
2018-09-25T19:09:52.476Z,68.60
2018-09-25T19:12:19.809Z,68.50
2018-09-25T19:14:47.148Z,68.30
2018-09-25T19:17:14.495Z,68.30
2018-09-25T19:19:41.846Z,68.60
2018-09-25T19:22:09.207Z,68.90
2018-09-25T19:24:36.543Z,68.80
2018-09-25T19:27:03.877Z,68.20
2018-09-25T19:29:31.201Z,68.40
2018-09-25T19:31:58.519Z,68.10
2018-09-25T19:34:25.895Z,68.80
2018-09-25T19:36:53.262Z,68.10
2018-09-25T19:39:20.657Z,68.40
2018-09-25T19:41:47.985Z,68.40
2018-09-25T19:44:15.390Z,68.20
2018-09-25T19:46:42.764Z,68.80
2018-09-25T19:49:10.087Z,68.60
2018-09-25T19:51:37.423Z,68.30
2018-09-25T19:54:04.759Z,68.70
2018-09-25T19:56:32.096Z,68.30
2018-09-25T19:58:59.490Z,68.80
2018-09-25T20:01:26.833Z,69.10
2018-09-25T20:03:54.163Z,71.30
2018-09-25T20:06:21.548Z,71.30
2018-09-25T20:08:48.811Z,71.90
2018-09-25T20:11:16.139Z,71.20
2018-09-25T20:13:43.479Z,71.10
2018-09-25T20:16:10.787Z,71.90
2018-09-25T20:18:38.103Z,70.80
2018-09-25T20:21:05.467Z,71.40
2018-09-25T20:23:32.779Z,71.40
2018-09-25T20:26:00.224Z,71.50
2018-09-25T20:28:27.555Z,71.30
2018-09-25T20:30:54.973Z,71.60
2018-09-25T20:33:22.473Z,73.00
2018-09-25T20:35:50.104Z,72.20
2018-09-25T20:38:17.530Z,72.20
2018-09-25T20:40:44.891Z,71.50
2018-09-25T20:43:12.301Z,72.00
2018-09-25T20:45:39.545Z,73.40
2018-09-25T20:48:06.891Z,73.20
2018-09-25T20:50:34.216Z,75.10
2018-09-25T20:53:01.544Z,74.30
2018-09-25T20:55:28.920Z,74.50
2018-09-25T20:57:56.203Z,75.20
2018-09-25T21:00:23.526Z,74.30
2018-09-25T21:02:50.852Z,74.60
2018-09-25T21:05:18.212Z,75.10
2018-09-25T21:07:45.523Z,74.70
2018-09-25T21:10:13.040Z,74.60
2018-09-25T21:12:40.390Z,74.10
2018-09-25T21:15:07.728Z,73.70
2018-09-25T21:17:35.428Z,73.90
2018-09-25T21:20:02.767Z,74.60
2018-09-25T21:22:30.205Z,74.70
2018-09-25T21:24:57.603Z,74.20
2018-09-25T21:27:25.061Z,76.80
2018-09-25T21:29:52.404Z,77.30
2018-09-25T21:32:19.735Z,77.00
2018-09-25T21:34:47.047Z,77.40
2018-09-25T21:37:14.408Z,77.60
2018-09-25T21:39:41.711Z,77.70
2018-09-25T21:42:09.121Z,77.40
2018-09-25T21:44:36.595Z,76.90
2018-09-25T21:47:03.919Z,76.80
2018-09-25T21:49:31.391Z,75.50
2018-09-25T21:51:58.735Z,76.00
2018-09-25T21:54:26.100Z,76.40
2018-09-25T21:56:53.492Z,76.30
2018-09-25T21:59:20.770Z,77.30
2018-09-25T22:01:48.077Z,78.40
2018-09-25T22:04:15.499Z,78.40
2018-09-25T22:06:42.929Z,78.10
2018-09-25T22:09:10.295Z,77.00
2018-09-25T22:11:37.663Z,76.80
2018-09-25T22:14:04.991Z,76.90
2018-09-25T22:16:32.346Z,77.00
2018-09-25T22:18:59.655Z,77.20
2018-09-25T22:21:27.011Z,79.10
2018-09-25T22:23:54.326Z,79.20
2018-09-25T22:26:21.629Z,79.00
2018-09-25T22:28:48.988Z,79.00
2018-09-25T22:31:16.327Z,79.00
2018-09-25T22:33:43.640Z,78.10
2018-09-25T22:36:11.008Z,77.20
2018-09-25T22:38:38.304Z,77.60
2018-09-25T22:41:12.414Z,77.60
2018-09-25T22:43:39.719Z,78.10
2018-09-25T22:46:07.050Z,78.50
2018-09-25T22:48:34.376Z,78.90
2018-09-25T22:51:01.747Z,79.30
2018-09-25T22:53:29.067Z,79.20
2018-09-25T22:55:56.492Z,79.40
2018-09-25T22:58:24.648Z,79.40
2018-09-25T23:00:51.996Z,79.70
2018-09-25T23:03:19.359Z,79.40
2018-09-25T23:05:46.714Z,79.60
2018-09-25T23:08:14.041Z,79.70
2018-09-25T23:10:41.348Z,79.90
2018-09-25T23:13:08.680Z,80.00
2018-09-25T23:15:36.023Z,79.40
2018-09-25T23:18:03.321Z,79.50
2018-09-25T23:20:30.630Z,80.70
2018-09-25T23:22:57.967Z,80.20
2018-09-25T23:25:25.279Z,80.40
2018-09-25T23:27:52.683Z,79.30
2018-09-25T23:30:20.035Z,79.30
2018-09-25T23:32:47.370Z,78.80
2018-09-25T23:35:14.761Z,79.00
2018-09-25T23:37:42.065Z,79.50
2018-09-25T23:40:09.406Z,79.80
2018-09-25T23:42:36.743Z,80.20
2018-09-25T23:45:04.168Z,80.90
2018-09-25T23:47:31.511Z,81.30
2018-09-25T23:49:58.821Z,80.30
2018-09-25T23:52:26.239Z,80.40
2018-09-25T23:54:53.595Z,80.80
2018-09-25T23:57:20.926Z,80.50
2018-09-25T23:59:48.252Z,80.40
